sensor_id;sensor_type;location;lat;lon;timestamp;pressure;altitude;pressure_sealevel;temperature;humidity
48862;BME280;34681;49.188;-0.374;2023-04-16T00:01:46;102373.63;;;11.39;66.81
48862;BME280;34681;49.188;-0.374;2023-04-16T00:04:12;102376.38;;;11.51;66.39
48862;BME280;34681;49.188;-0.374;2023-04-16T00:06:37;102369.75;;;11.67;65.54
48862;BME280;34681;49.188;-0.374;2023-04-16T00:09:02;102368.75;;;11.68;65.19
48862;BME280;34681;49.188;-0.374;2023-04-16T00:11:28;102372.06;;;11.60;65.36
48862;BME280;34681;49.188;-0.374;2023-04-16T00:13:53;102357.88;;;11.66;65.29
48862;BME280;34681;49.188;-0.374;2023-04-16T00:16:19;102363.03;;;11.71;64.93
48862;BME280;34681;49.188;-0.374;2023-04-16T00:18:44;102358.53;;;11.70;65.13
48862;BME280;34681;49.188;-0.374;2023-04-16T00:21:10;102358.00;;;11.65;65.16
48862;BME280;34681;49.188;-0.374;2023-04-16T00:23:35;102354.38;;;11.64;65.02
48862;BME280;34681;49.188;-0.374;2023-04-16T00:26:00;102362.59;;;11.64;65.12
48862;BME280;34681;49.188;-0.374;2023-04-16T00:28:26;102358.78;;;11.67;64.73
48862;BME280;34681;49.188;-0.374;2023-04-16T00:30:52;102356.38;;;11.62;64.88
48862;BME280;34681;49.188;-0.374;2023-04-16T00:33:17;102358.56;;;11.57;64.99
48862;BME280;34681;49.188;-0.374;2023-04-16T00:35:46;102357.88;;;11.66;64.72
48862;BME280;34681;49.188;-0.374;2023-04-16T00:38:12;102358.34;;;11.60;64.61
48862;BME280;34681;49.188;-0.374;2023-04-16T00:40:38;102368.91;;;11.53;64.96
48862;BME280;34681;49.188;-0.374;2023-04-16T00:43:03;102360.78;;;11.52;64.85
48862;BME280;34681;49.188;-0.374;2023-04-16T00:45:29;102361.13;;;11.47;64.98
48862;BME280;34681;49.188;-0.374;2023-04-16T00:47:55;102360.47;;;11.44;64.96
48862;BME280;34681;49.188;-0.374;2023-04-16T00:50:22;102358.22;;;11.12;65.93
48862;BME280;34681;49.188;-0.374;2023-04-16T00:52:48;102351.72;;;11.39;65.20
48862;BME280;34681;49.188;-0.374;2023-04-16T00:55:14;102357.63;;;11.45;64.96
48862;BME280;34681;49.188;-0.374;2023-04-16T00:57:41;102345.13;;;11.41;65.14
48862;BME280;34681;49.188;-0.374;2023-04-16T01:00:07;102361.16;;;11.35;65.33
48862;BME280;34681;49.188;-0.374;2023-04-16T01:02:33;102350.09;;;11.36;65.20
48862;BME280;34681;49.188;-0.374;2023-04-16T01:05:00;102352.47;;;11.41;65.16
48862;BME280;34681;49.188;-0.374;2023-04-16T01:07:26;102355.50;;;11.49;64.99
48862;BME280;34681;49.188;-0.374;2023-04-16T01:09:51;102359.81;;;11.40;65.22
48862;BME280;34681;49.188;-0.374;2023-04-16T01:12:16;102362.16;;;11.34;65.44
48862;BME280;34681;49.188;-0.374;2023-04-16T01:14:42;102365.28;;;11.40;65.33
48862;BME280;34681;49.188;-0.374;2023-04-16T01:17:07;102362.56;;;11.40;65.21
48862;BME280;34681;49.188;-0.374;2023-04-16T01:19:32;102360.47;;;11.44;65.41
48862;BME280;34681;49.188;-0.374;2023-04-16T01:22:00;102362.16;;;11.34;65.86
48862;BME280;34681;49.188;-0.374;2023-04-16T01:24:26;102374.06;;;11.45;64.87
48862;BME280;34681;49.188;-0.374;2023-04-16T01:26:52;102364.91;;;11.34;65.21
48862;BME280;34681;49.188;-0.374;2023-04-16T01:29:17;102366.75;;;11.20;65.74
48862;BME280;34681;49.188;-0.374;2023-04-16T01:31:42;102364.78;;;11.22;65.58
48862;BME280;34681;49.188;-0.374;2023-04-16T01:34:08;102365.66;;;11.23;65.82
48862;BME280;34681;49.188;-0.374;2023-04-16T01:36:33;102363.91;;;11.22;65.93
48862;BME280;34681;49.188;-0.374;2023-04-16T01:38:59;102363.22;;;11.31;65.75
48862;BME280;34681;49.188;-0.374;2023-04-16T01:41:24;102365.22;;;11.29;65.67
48862;BME280;34681;49.188;-0.374;2023-04-16T01:43:49;102353.50;;;11.27;65.70
48862;BME280;34681;49.188;-0.374;2023-04-16T01:46:29;102349.09;;;11.37;65.47
48862;BME280;34681;49.188;-0.374;2023-04-16T01:48:56;102346.91;;;11.30;65.38
48862;BME280;34681;49.188;-0.374;2023-04-16T01:51:22;102345.72;;;11.34;65.06
48862;BME280;34681;49.188;-0.374;2023-04-16T01:53:49;102356.44;;;11.24;65.60
48862;BME280;34681;49.188;-0.374;2023-04-16T01:56:14;102353.94;;;11.34;65.22
48862;BME280;34681;49.188;-0.374;2023-04-16T01:58:40;102353.81;;;11.35;65.09
48862;BME280;34681;49.188;-0.374;2023-04-16T02:01:07;102353.94;;;11.34;65.29
48862;BME280;34681;49.188;-0.374;2023-04-16T02:03:33;102351.41;;;11.31;65.17
48862;BME280;34681;49.188;-0.374;2023-04-16T02:05:58;102357.13;;;11.28;65.28
48862;BME280;34681;49.188;-0.374;2023-04-16T02:08:25;102349.66;;;11.30;65.14
48862;BME280;34681;49.188;-0.374;2023-04-16T02:10:51;102350.75;;;11.27;65.41
48862;BME280;34681;49.188;-0.374;2023-04-16T02:13:16;102347.22;;;11.25;65.58
48862;BME280;34681;49.188;-0.374;2023-04-16T02:15:49;102349.22;;;11.36;65.11
48862;BME280;34681;49.188;-0.374;2023-04-16T02:18:15;102348.53;;;11.32;65.03
48862;BME280;34681;49.188;-0.374;2023-04-16T02:20:45;102345.28;;;11.27;65.58
48862;BME280;34681;49.188;-0.374;2023-04-16T02:23:11;102351.28;;;11.32;65.39
48862;BME280;34681;49.188;-0.374;2023-04-16T02:25:44;102346.66;;;11.33;65.34
48862;BME280;34681;49.188;-0.374;2023-04-16T02:28:15;102350.09;;;11.36;65.31
48862;BME280;34681;49.188;-0.374;2023-04-16T02:30:41;102355.13;;;11.30;65.39
48862;BME280;34681;49.188;-0.374;2023-04-16T02:33:08;102352.28;;;11.31;65.23
48862;BME280;34681;49.188;-0.374;2023-04-16T02:35:34;102355.44;;;11.25;65.63
48862;BME280;34681;49.188;-0.374;2023-04-16T02:38:00;102339.91;;;11.25;65.33
48862;BME280;34681;49.188;-0.374;2023-04-16T02:40:26;102346.59;;;11.21;65.29
48862;BME280;34681;49.188;-0.374;2023-04-16T02:42:52;102346.72;;;11.20;65.18
48862;BME280;34681;49.188;-0.374;2023-04-16T02:45:18;102338.28;;;11.10;65.79
48862;BME280;34681;49.188;-0.374;2023-04-16T02:47:44;102335.97;;;11.17;65.11
48862;BME280;34681;49.188;-0.374;2023-04-16T02:50:10;102332.50;;;10.89;65.85
48862;BME280;34681;49.188;-0.374;2023-04-16T02:52:35;102346.28;;;10.75;66.46
48862;BME280;34681;49.188;-0.374;2023-04-16T02:55:00;102341.34;;;10.55;66.64
48862;BME280;34681;49.188;-0.374;2023-04-16T02:57:26;102340.50;;;10.80;66.58
48862;BME280;34681;49.188;-0.374;2023-04-16T02:59:51;102338.09;;;11.01;65.75
48862;BME280;34681;49.188;-0.374;2023-04-16T03:02:16;102346.94;;;11.04;65.69
48862;BME280;34681;49.188;-0.374;2023-04-16T03:04:42;102344.97;;;11.06;65.63
48862;BME280;34681;49.188;-0.374;2023-04-16T03:07:07;102349.34;;;11.09;65.28
48862;BME280;34681;49.188;-0.374;2023-04-16T03:09:33;102350.88;;;11.13;65.35
48862;BME280;34681;49.188;-0.374;2023-04-16T03:11:59;102354.25;;;11.16;65.34
48862;BME280;34681;49.188;-0.374;2023-04-16T03:14:26;102348.69;;;11.18;65.17
48862;BME280;34681;49.188;-0.374;2023-04-16T03:16:51;102346.91;;;11.17;65.38
48862;BME280;34681;49.188;-0.374;2023-04-16T03:19:16;102351.19;;;11.21;65.38
48862;BME280;34681;49.188;-0.374;2023-04-16T03:21:42;102350.09;;;11.23;65.26
48862;BME280;34681;49.188;-0.374;2023-04-16T03:24:07;102346.59;;;11.21;65.00
48862;BME280;34681;49.188;-0.374;2023-04-16T03:26:32;102341.34;;;11.18;65.23
48862;BME280;34681;49.188;-0.374;2023-04-16T03:28:58;102344.09;;;11.18;65.25
48862;BME280;34681;49.188;-0.374;2023-04-16T03:31:23;102349.44;;;11.20;65.11
48862;BME280;34681;49.188;-0.374;2023-04-16T03:33:49;102346.72;;;11.20;64.95
48862;BME280;34681;49.188;-0.374;2023-04-16T03:36:14;102339.16;;;11.11;65.46
48862;BME280;34681;49.188;-0.374;2023-04-16T03:38:40;102338.81;;;11.15;65.06
48862;BME280;34681;49.188;-0.374;2023-04-16T03:41:05;102333.78;;;11.22;65.00
48862;BME280;34681;49.188;-0.374;2023-04-16T03:43:30;102340.34;;;11.19;65.00
48862;BME280;34681;49.188;-0.374;2023-04-16T03:45:56;102340.91;;;11.12;65.21
48862;BME280;34681;49.188;-0.374;2023-04-16T03:48:21;102341.44;;;11.17;65.18
48862;BME280;34681;49.188;-0.374;2023-04-16T03:50:46;102341.13;;;11.21;64.65
48862;BME280;34681;49.188;-0.374;2023-04-16T03:53:12;102337.63;;;11.19;64.86
48862;BME280;34681;49.188;-0.374;2023-04-16T03:55:38;102332.63;;;11.01;65.28
48862;BME280;34681;49.188;-0.374;2023-04-16T03:58:03;102326.59;;;10.95;65.24
48862;BME280;34681;49.188;-0.374;2023-04-16T04:00:29;102331.19;;;10.95;65.42
48862;BME280;34681;49.188;-0.374;2023-04-16T04:02:55;102320.66;;;11.02;64.88
48862;BME280;34681;49.188;-0.374;2023-04-16T04:05:20;102324.69;;;11.09;64.61
48862;BME280;34681;49.188;-0.374;2023-04-16T04:07:45;102330.28;;;11.07;64.35
48862;BME280;34681;49.188;-0.374;2023-04-16T04:10:11;102332.69;;;10.99;64.62
48862;BME280;34681;49.188;-0.374;2023-04-16T04:12:36;102325.81;;;10.93;64.68
48862;BME280;34681;49.188;-0.374;2023-04-16T04:15:01;102333.16;;;10.93;64.77
48862;BME280;34681;49.188;-0.374;2023-04-16T04:17:27;102323.97;;;10.94;64.72
48862;BME280;34681;49.188;-0.374;2023-04-16T04:19:52;102327.25;;;10.86;64.70
48862;BME280;34681;49.188;-0.374;2023-04-16T04:22:18;102335.47;;;10.86;64.84
48862;BME280;34681;49.188;-0.374;2023-04-16T04:24:43;102338.19;;;10.86;64.71
48862;BME280;34681;49.188;-0.374;2023-04-16T04:27:09;102335.66;;;10.83;64.90
48862;BME280;34681;49.188;-0.374;2023-04-16T04:29:34;102333.72;;;10.85;64.87
48862;BME280;34681;49.188;-0.374;2023-04-16T04:31:59;102340.25;;;10.83;65.06
48862;BME280;34681;49.188;-0.374;2023-04-16T04:34:25;102338.97;;;10.88;64.99
48862;BME280;34681;49.188;-0.374;2023-04-16T04:36:50;102342.91;;;10.84;64.95
48862;BME280;34681;49.188;-0.374;2023-04-16T04:39:16;102348.72;;;10.80;65.24
48862;BME280;34681;49.188;-0.374;2023-04-16T04:41:41;102345.97;;;10.80;65.20
48862;BME280;34681;49.188;-0.374;2023-04-16T04:44:06;102351.88;;;10.74;65.79
48862;BME280;34681;49.188;-0.374;2023-04-16T04:46:32;102341.13;;;10.83;65.58
48862;BME280;34681;49.188;-0.374;2023-04-16T04:48:57;102346.41;;;10.86;65.55
48862;BME280;34681;49.188;-0.374;2023-04-16T04:51:22;102346.75;;;10.94;65.21
48862;BME280;34681;49.188;-0.374;2023-04-16T04:53:48;102348.59;;;10.94;65.39
48862;BME280;34681;49.188;-0.374;2023-04-16T04:56:13;102338.63;;;10.93;65.49
48862;BME280;34681;49.188;-0.374;2023-04-16T04:58:40;102344.75;;;10.96;65.41
48862;BME280;34681;49.188;-0.374;2023-04-16T05:01:05;102352.09;;;10.96;65.85
48862;BME280;34681;49.188;-0.374;2023-04-16T05:03:31;102343.00;;;10.95;65.78
48862;BME280;34681;49.188;-0.374;2023-04-16T05:05:56;102349.03;;;11.01;65.49
48862;BME280;34681;49.188;-0.374;2023-04-16T05:08:21;102347.59;;;11.08;65.27
48862;BME280;34681;49.188;-0.374;2023-04-16T05:10:47;102349.56;;;11.06;65.26
48862;BME280;34681;49.188;-0.374;2023-04-16T05:13:12;102354.53;;;11.01;65.50
48862;BME280;34681;49.188;-0.374;2023-04-16T05:15:38;102352.75;;;11.12;65.22
48862;BME280;34681;49.188;-0.374;2023-04-16T05:18:03;102355.16;;;11.04;65.45
48862;BME280;34681;49.188;-0.374;2023-04-16T05:20:28;102360.72;;;11.15;65.15
48862;BME280;34681;49.188;-0.374;2023-04-16T05:22:54;102352.63;;;11.14;65.35
48862;BME280;34681;49.188;-0.374;2023-04-16T05:25:19;102354.25;;;11.16;65.37
48862;BME280;34681;49.188;-0.374;2023-04-16T05:27:45;102353.19;;;11.19;65.30
48862;BME280;34681;49.188;-0.374;2023-04-16T05:30:10;102361.91;;;11.24;65.43
48862;BME280;34681;49.188;-0.374;2023-04-16T05:32:37;102363.66;;;11.25;65.29
48862;BME280;34681;49.188;-0.374;2023-04-16T05:35:04;102363.59;;;11.27;65.04
48862;BME280;34681;49.188;-0.374;2023-04-16T05:37:29;102359.63;;;11.31;65.06
48862;BME280;34681;49.188;-0.374;2023-04-16T05:39:55;102359.69;;;11.42;64.86
48862;BME280;34681;49.188;-0.374;2023-04-16T05:42:20;102364.31;;;11.41;65.17
48862;BME280;34681;49.188;-0.374;2023-04-16T05:44:45;102368.03;;;11.53;64.64
48862;BME280;34681;49.188;-0.374;2023-04-16T05:47:11;102372.28;;;11.57;64.61
48862;BME280;34681;49.188;-0.374;2023-04-16T05:49:36;102369.63;;;11.68;64.29
48862;BME280;34681;49.188;-0.374;2023-04-16T05:52:03;102375.88;;;11.58;64.50
48862;BME280;34681;49.188;-0.374;2023-04-16T05:54:28;102366.72;;;11.33;65.17
48862;BME280;34681;49.188;-0.374;2023-04-16T05:56:53;102375.56;;;11.49;64.89
48862;BME280;34681;49.188;-0.374;2023-04-16T05:59:19;102380.81;;;11.65;64.33
48862;BME280;34681;49.188;-0.374;2023-04-16T06:01:44;102376.31;;;11.64;64.38
48862;BME280;34681;49.188;-0.374;2023-04-16T06:04:09;102375.63;;;11.73;64.26
48862;BME280;34681;49.188;-0.374;2023-04-16T06:06:35;102379.91;;;11.77;64.22
48862;BME280;34681;49.188;-0.374;2023-04-16T06:09:01;102382.97;;;11.86;63.82
48862;BME280;34681;49.188;-0.374;2023-04-16T06:11:28;102382.28;;;11.95;63.87
48862;BME280;34681;49.188;-0.374;2023-04-16T06:13:54;102381.16;;;11.97;63.61
48862;BME280;34681;49.188;-0.374;2023-04-16T06:16:20;102393.88;;;11.98;63.81
48862;BME280;34681;49.188;-0.374;2023-04-16T06:18:45;102397.47;;;12.12;63.31
48862;BME280;34681;49.188;-0.374;2023-04-16T06:21:10;102389.97;;;12.14;63.20
48862;BME280;34681;49.188;-0.374;2023-04-16T06:23:36;102393.09;;;12.09;63.58
48862;BME280;34681;49.188;-0.374;2023-04-16T06:26:01;102399.97;;;12.15;63.46
48862;BME280;34681;49.188;-0.374;2023-04-16T06:28:27;102397.22;;;12.15;63.38
48862;BME280;34681;49.188;-0.374;2023-04-16T06:30:52;102402.13;;;12.22;63.40
48862;BME280;34681;49.188;-0.374;2023-04-16T06:33:17;102410.50;;;12.32;62.89
48862;BME280;34681;49.188;-0.374;2023-04-16T06:35:43;102411.19;;;12.35;62.70
48862;BME280;34681;49.188;-0.374;2023-04-16T06:38:08;102417.28;;;12.39;63.06
48862;BME280;34681;49.188;-0.374;2023-04-16T06:40:33;102417.06;;;12.42;62.87
48862;BME280;34681;49.188;-0.374;2023-04-16T06:43:01;102417.53;;;12.36;63.20
48862;BME280;34681;49.188;-0.374;2023-04-16T06:45:27;102413.19;;;12.33;63.35
48862;BME280;34681;49.188;-0.374;2023-04-16T06:47:52;102418.28;;;12.38;63.13
48862;BME280;34681;49.188;-0.374;2023-04-16T06:50:17;102419.31;;;12.48;62.09
48862;BME280;34681;49.188;-0.374;2023-04-16T06:52:43;102422.56;;;12.42;61.71
48862;BME280;34681;49.188;-0.374;2023-04-16T06:55:08;102419.13;;;12.27;62.01
48862;BME280;34681;49.188;-0.374;2023-04-16T06:57:34;102413.94;;;12.35;62.09
48862;BME280;34681;49.188;-0.374;2023-04-16T07:00:00;102417.50;;;12.25;62.40
48862;BME280;34681;49.188;-0.374;2023-04-16T07:02:25;102412.09;;;12.47;62.11
48862;BME280;34681;49.188;-0.374;2023-04-16T07:04:51;102420.25;;;12.60;61.82
48862;BME280;34681;49.188;-0.374;2023-04-16T07:07:17;102416.50;;;12.50;62.14
48862;BME280;34681;49.188;-0.374;2023-04-16T07:09:42;102423.16;;;12.70;61.63
48862;BME280;34681;49.188;-0.374;2023-04-16T07:12:07;102419.84;;;12.88;60.62
48862;BME280;34681;49.188;-0.374;2023-04-16T07:14:33;102427.31;;;12.86;61.27
48862;BME280;34681;49.188;-0.374;2023-04-16T07:16:58;102429.47;;;12.83;61.48
48862;BME280;34681;49.188;-0.374;2023-04-16T07:19:23;102434.09;;;12.93;61.41
48862;BME280;34681;49.188;-0.374;2023-04-16T07:21:49;102432.22;;;12.94;61.64
48862;BME280;34681;49.188;-0.374;2023-04-16T07:24:14;102434.09;;;12.93;61.92
48862;BME280;34681;49.188;-0.374;2023-04-16T07:26:40;102435.25;;;13.13;61.67
48862;BME280;34681;49.188;-0.374;2023-04-16T07:29:05;102429.53;;;13.16;61.74
48862;BME280;34681;49.188;-0.374;2023-04-16T07:31:30;102428.81;;;13.26;61.21
48862;BME280;34681;49.188;-0.374;2023-04-16T07:33:57;102427.94;;;13.36;61.00
48862;BME280;34681;49.188;-0.374;2023-04-16T07:36:22;102432.31;;;13.50;60.43
48862;BME280;34681;49.188;-0.374;2023-04-16T07:38:47;102428.06;;;13.46;60.58
48862;BME280;34681;49.188;-0.374;2023-04-16T07:41:13;102435.31;;;13.58;60.38
48862;BME280;34681;49.188;-0.374;2023-04-16T07:43:39;102425.78;;;13.73;60.10
48862;BME280;34681;49.188;-0.374;2023-04-16T07:46:04;102430.53;;;13.71;60.36
48862;BME280;34681;49.188;-0.374;2023-04-16T07:48:30;102430.91;;;13.89;59.72
48862;BME280;34681;49.188;-0.374;2023-04-16T07:50:55;102437.28;;;13.78;60.29
48862;BME280;34681;49.188;-0.374;2023-04-16T07:53:21;102435.28;;;13.92;60.17
48862;BME280;34681;49.188;-0.374;2023-04-16T07:55:47;102440.16;;;13.99;60.06
48862;BME280;34681;49.188;-0.374;2023-04-16T07:58:12;102439.16;;;14.00;60.09
48862;BME280;34681;49.188;-0.374;2023-04-16T08:00:38;102441.16;;;13.98;60.01
48862;BME280;34681;49.188;-0.374;2023-04-16T08:03:03;102441.16;;;13.98;60.04
48862;BME280;34681;49.188;-0.374;2023-04-16T08:05:29;102437.78;;;13.95;60.12
48862;BME280;34681;49.188;-0.374;2023-04-16T08:07:54;102441.78;;;14.02;60.10
48862;BME280;34681;49.188;-0.374;2023-04-16T08:10:20;102447.38;;;14.12;59.81
48862;BME280;34681;49.188;-0.374;2023-04-16T08:12:45;102443.47;;;14.14;59.81
48862;BME280;34681;49.188;-0.374;2023-04-16T08:15:11;102445.22;;;14.26;59.37
48862;BME280;34681;49.188;-0.374;2023-04-16T08:17:37;102447.69;;;14.41;59.35
48862;BME280;34681;49.188;-0.374;2023-04-16T08:20:03;102453.91;;;14.43;59.37
48862;BME280;34681;49.188;-0.374;2023-04-16T08:22:29;102453.53;;;14.47;59.38
48862;BME280;34681;49.188;-0.374;2023-04-16T08:24:54;102462.16;;;14.65;59.02
48862;BME280;34681;49.188;-0.374;2023-04-16T08:27:19;102454.97;;;14.74;59.08
48862;BME280;34681;49.188;-0.374;2023-04-16T08:29:46;102450.03;;;14.77;59.44
48862;BME280;34681;49.188;-0.374;2023-04-16T08:32:11;102445.34;;;14.89;59.12
48862;BME280;34681;49.188;-0.374;2023-04-16T08:34:37;102450.38;;;15.05;59.08
48862;BME280;34681;49.188;-0.374;2023-04-16T08:37:02;102454.69;;;15.18;59.04
48862;BME280;34681;49.188;-0.374;2023-04-16T08:39:27;102452.53;;;15.22;59.10
48862;BME280;34681;49.188;-0.374;2023-04-16T08:41:53;102454.69;;;15.39;58.67
48862;BME280;34681;49.188;-0.374;2023-04-16T08:44:26;102456.81;;;15.57;58.43
48862;BME280;34681;49.188;-0.374;2023-04-16T08:46:54;102460.25;;;15.80;57.57
48862;BME280;34681;49.188;-0.374;2023-04-16T08:49:24;102462.03;;;15.81;57.97
48862;BME280;34681;49.188;-0.374;2023-04-16T08:51:52;102464.19;;;15.87;58.02
48862;BME280;34681;49.188;-0.374;2023-04-16T08:54:30;102464.81;;;15.90;58.33
48862;BME280;34681;49.188;-0.374;2023-04-16T08:56:57;102462.34;;;15.97;58.27
48862;BME280;34681;49.188;-0.374;2023-04-16T08:59:24;102455.38;;;16.02;58.20
48862;BME280;34681;49.188;-0.374;2023-04-16T09:01:51;102461.22;;;15.99;58.25
48862;BME280;34681;49.188;-0.374;2023-04-16T09:04:20;102465.41;;;16.04;58.50
48862;BME280;34681;49.188;-0.374;2023-04-16T09:06:47;102470.38;;;16.00;59.13
48862;BME280;34681;49.188;-0.374;2023-04-16T09:09:13;102478.97;;;16.07;58.99
48862;BME280;34681;49.188;-0.374;2023-04-16T09:11:40;102481.97;;;15.63;58.99
48862;BME280;34681;49.188;-0.374;2023-04-16T09:14:08;102477.97;;;15.77;59.29
48862;BME280;34681;49.188;-0.374;2023-04-16T09:16:34;102484.09;;;15.81;59.31
48862;BME280;34681;49.188;-0.374;2023-04-16T09:18:59;102486.63;;;15.42;59.54
48862;BME280;34681;49.188;-0.374;2023-04-16T09:21:25;102486.38;;;15.24;60.09
48862;BME280;34681;49.188;-0.374;2023-04-16T09:23:52;102489.44;;;15.72;59.29
48862;BME280;34681;49.188;-0.374;2023-04-16T09:26:18;102483.38;;;15.88;59.27
48862;BME280;34681;49.188;-0.374;2023-04-16T09:28:45;102487.16;;;16.37;58.12
48862;BME280;34681;49.188;-0.374;2023-04-16T09:31:15;102486.47;;;16.64;57.62
48862;BME280;34681;49.188;-0.374;2023-04-16T09:33:41;102486.34;;;16.66;58.15
48862;BME280;34681;49.188;-0.374;2023-04-16T09:36:08;102481.69;;;16.66;58.23
48862;BME280;34681;49.188;-0.374;2023-04-16T09:38:50;102492.03;;;16.83;58.04
48862;BME280;34681;49.188;-0.374;2023-04-16T09:41:16;102490.25;;;17.11;57.63
48862;BME280;34681;49.188;-0.374;2023-04-16T09:43:59;102487.91;;;17.26;57.35
48862;BME280;34681;49.188;-0.374;2023-04-16T09:46:30;102491.66;;;17.54;56.46
48862;BME280;34681;49.188;-0.374;2023-04-16T09:48:56;102485.59;;;17.78;56.37
48862;BME280;34681;49.188;-0.374;2023-04-16T09:51:22;102483.69;;;17.79;56.28
48862;BME280;34681;49.188;-0.374;2023-04-16T09:53:51;102484.50;;;17.99;55.91
48862;BME280;34681;49.188;-0.374;2023-04-16T10:08:53;102497.25;;;18.82;53.12
48862;BME280;34681;49.188;-0.374;2023-04-16T10:11:21;102492.84;;;18.62;53.84
48862;BME280;34681;49.188;-0.374;2023-04-16T10:13:46;102497.38;;;18.63;53.52
48862;BME280;34681;49.188;-0.374;2023-04-16T10:16:12;102493.03;;;17.87;52.32
48862;BME280;34681;49.188;-0.374;2023-04-16T10:18:39;102493.78;;;17.60;54.25
48862;BME280;34681;49.188;-0.374;2023-04-16T10:21:05;102496.84;;;18.32;53.00
48862;BME280;34681;49.188;-0.374;2023-04-16T10:23:31;102497.97;;;17.84;53.25
48862;BME280;34681;49.188;-0.374;2023-04-16T10:25:58;102496.41;;;17.81;53.66
48862;BME280;34681;49.188;-0.374;2023-04-16T10:28:24;102495.28;;;18.74;52.67
48862;BME280;34681;49.188;-0.374;2023-04-16T10:30:50;102496.09;;;19.28;52.30
48862;BME280;34681;49.188;-0.374;2023-04-16T10:33:26;102494.38;;;19.53;51.74
48862;BME280;34681;49.188;-0.374;2023-04-16T10:38:43;102487.25;;;20.11;49.90
48862;BME280;34681;49.188;-0.374;2023-04-16T10:41:09;102485.50;;;20.10;49.47
48862;BME280;34681;49.188;-0.374;2023-04-16T10:43:39;102490.75;;;20.21;49.22
48862;BME280;34681;49.188;-0.374;2023-04-16T10:46:25;102487.06;;;20.55;47.93
48862;BME280;34681;49.188;-0.374;2023-04-16T10:48:55;102480.06;;;20.00;49.27
48862;BME280;34681;49.188;-0.374;2023-04-16T10:53:55;102486.13;;;19.61;49.04
48862;BME280;34681;49.188;-0.374;2023-04-16T10:56:25;102482.69;;;20.02;48.06
48862;BME280;34681;49.188;-0.374;2023-04-16T10:58:54;102485.75;;;19.56;48.60
48862;BME280;34681;49.188;-0.374;2023-04-16T11:01:28;102491.78;;;19.78;48.63
48862;BME280;34681;49.188;-0.374;2023-04-16T11:03:55;102484.38;;;20.29;47.52
48862;BME280;34681;49.188;-0.374;2023-04-16T11:06:24;102490.38;;;20.58;46.77
48862;BME280;34681;49.188;-0.374;2023-04-16T11:08:51;102482.69;;;20.02;46.70
48862;BME280;34681;49.188;-0.374;2023-04-16T11:11:17;102481.84;;;19.49;46.99
48862;BME280;34681;49.188;-0.374;2023-04-16T11:13:43;102492.13;;;19.83;46.71
48862;BME280;34681;49.188;-0.374;2023-04-16T11:16:13;102477.81;;;19.96;46.55
48862;BME280;34681;49.188;-0.374;2023-04-16T11:18:39;102483.13;;;20.23;45.57
48862;BME280;34681;49.188;-0.374;2023-04-16T11:21:09;102473.50;;;20.09;42.71
48862;BME280;34681;49.188;-0.374;2023-04-16T11:23:49;102481.00;;;20.17;42.65
48862;BME280;34681;49.188;-0.374;2023-04-16T11:26:33;102474.94;;;19.09;42.30
48862;BME280;34681;49.188;-0.374;2023-04-16T11:28:58;102479.34;;;19.38;43.49
48862;BME280;34681;49.188;-0.374;2023-04-16T11:31:24;102479.78;;;19.51;43.52
48862;BME280;34681;49.188;-0.374;2023-04-16T11:33:51;102479.09;;;18.70;43.59
48862;BME280;34681;49.188;-0.374;2023-04-16T11:36:16;102481.22;;;18.58;43.57
48862;BME280;34681;49.188;-0.374;2023-04-16T11:38:42;102477.13;;;18.98;44.14
48862;BME280;34681;49.188;-0.374;2023-04-16T11:41:08;102473.75;;;19.56;43.40
48862;BME280;34681;49.188;-0.374;2023-04-16T11:43:35;102468.53;;;20.21;42.30
48862;BME280;34681;49.188;-0.374;2023-04-16T11:46:02;102476.19;;;20.35;42.90
48862;BME280;34681;49.188;-0.374;2023-04-16T11:48:53;102469.75;;;20.35;42.59
48862;BME280;34681;49.188;-0.374;2023-04-16T11:51:19;102469.63;;;19.94;42.48
48862;BME280;34681;49.188;-0.374;2023-04-16T11:53:51;102470.66;;;19.15;43.95
48862;BME280;34681;49.188;-0.374;2023-04-16T11:56:28;102467.75;;;18.63;45.60
48862;BME280;34681;49.188;-0.374;2023-04-16T11:59:09;102468.72;;;18.54;45.91
48862;BME280;34681;49.188;-0.374;2023-04-16T12:01:36;102466.66;;;19.35;45.31
48862;BME280;34681;49.188;-0.374;2023-04-16T12:04:02;102463.81;;;19.71;43.74
48862;BME280;34681;49.188;-0.374;2023-04-16T12:06:27;102465.47;;;19.98;43.80
48862;BME280;34681;49.188;-0.374;2023-04-16T12:08:53;102467.50;;;19.54;44.99
48862;BME280;34681;49.188;-0.374;2023-04-16T12:11:19;102462.19;;;19.69;44.41
48862;BME280;34681;49.188;-0.374;2023-04-16T12:14:06;102469.34;;;20.05;43.21
48862;BME280;34681;49.188;-0.374;2023-04-16T12:16:32;102469.34;;;19.45;43.50
48862;BME280;34681;49.188;-0.374;2023-04-16T12:18:58;102458.25;;;19.45;44.23
48862;BME280;34681;49.188;-0.374;2023-04-16T12:21:35;102465.41;;;19.04;44.84
48862;BME280;34681;49.188;-0.374;2023-04-16T12:24:00;102480.81;;;19.50;44.61
48862;BME280;34681;49.188;-0.374;2023-04-16T12:26:25;102466.03;;;20.10;43.43
48862;BME280;34681;49.188;-0.374;2023-04-16T12:28:51;102468.81;;;20.10;42.53
48862;BME280;34681;49.188;-0.374;2023-04-16T12:31:16;102471.97;;;19.73;44.10
48862;BME280;34681;49.188;-0.374;2023-04-16T12:33:41;102470.91;;;20.08;44.28
48862;BME280;34681;49.188;-0.374;2023-04-16T12:36:17;102470.50;;;19.95;44.82
48862;BME280;34681;49.188;-0.374;2023-04-16T12:38:43;102473.31;;;19.69;44.15
48862;BME280;34681;49.188;-0.374;2023-04-16T12:41:08;102470.25;;;19.54;43.53
48862;BME280;34681;49.188;-0.374;2023-04-16T12:43:35;102467.38;;;19.98;43.31
48862;BME280;34681;49.188;-0.374;2023-04-16T12:46:00;102475.56;;;19.99;43.39
48862;BME280;34681;49.188;-0.374;2023-04-16T12:48:26;102466.34;;;19.99;43.21
48862;BME280;34681;49.188;-0.374;2023-04-16T12:50:53;102468.13;;;20.58;43.32
48862;BME280;34681;49.188;-0.374;2023-04-16T12:53:18;102472.66;;;20.67;44.10
48862;BME280;34681;49.188;-0.374;2023-04-16T12:55:44;102461.38;;;20.18;43.93